sensor_id;sensor_type;location;lat;lon;timestamp;P1;durP1;ratioP1;P2;durP2;ratioP2
63050;SDS011;49136;47.416;19.402;2023-02-01T00:01:19;1.20;;;1.02;;
63050;SDS011;49136;47.416;19.402;2023-02-01T00:06:18;2.90;;;1.40;;
63050;SDS011;49136;47.416;19.402;2023-02-01T00:08:44;0.93;;;0.80;;
63050;SDS011;49136;47.416;19.402;2023-02-01T00:11:10;0.40;;;0.40;;
63050;SDS011;49136;47.416;19.402;2023-02-01T00:13:37;2.38;;;1.40;;
63050;SDS011;49136;47.416;19.402;2023-02-01T00:18:51;1.60;;;1.02;;
63050;SDS011;49136;47.416;19.402;2023-02-01T00:21:21;5.03;;;1.58;;
63050;SDS011;49136;47.416;19.402;2023-02-01T00:26:30;5.70;;;1.85;;
63050;SDS011;49136;47.416;19.402;2023-02-01T00:28:58;0.93;;;0.77;;
63050;SDS011;49136;47.416;19.402;2023-02-01T00:31:23;0.80;;;0.77;;
63050;SDS011;49136;47.416;19.402;2023-02-01T00:33:56;2.83;;;1.45;;
63050;SDS011;49136;47.416;19.402;2023-02-01T00:36:22;6.28;;;1.90;;
63050;SDS011;49136;47.416;19.402;2023-02-01T00:38:47;4.93;;;0.93;;
63050;SDS011;49136;47.416;19.402;2023-02-01T00:41:14;1.00;;;0.90;;
63050;SDS011;49136;47.416;19.402;2023-02-01T00:43:50;1.88;;;0.57;;
63050;SDS011;49136;47.416;19.402;2023-02-01T00:46:16;1.10;;;0.98;;
63050;SDS011;49136;47.416;19.402;2023-02-01T00:48:43;0.55;;;0.55;;
63050;SDS011;49136;47.416;19.402;2023-02-01T00:51:10;1.25;;;0.75;;
63050;SDS011;49136;47.416;19.402;2023-02-01T00:53:38;2.35;;;0.90;;
63050;SDS011;49136;47.416;19.402;2023-02-01T00:59:13;2.05;;;1.02;;
63050;SDS011;49136;47.416;19.402;2023-02-01T01:01:39;0.40;;;0.40;;
63050;SDS011;49136;47.416;19.402;2023-02-01T01:04:04;2.05;;;1.15;;
63050;SDS011;49136;47.416;19.402;2023-02-01T01:06:31;1.73;;;1.10;;
63050;SDS011;49136;47.416;19.402;2023-02-01T01:08:58;4.28;;;1.85;;
63050;SDS011;49136;47.416;19.402;2023-02-01T01:11:29;3.30;;;1.17;;
63050;SDS011;49136;47.416;19.402;2023-02-01T01:16:42;3.25;;;0.95;;
63050;SDS011;49136;47.416;19.402;2023-02-01T01:19:07;1.15;;;0.75;;
63050;SDS011;49136;47.416;19.402;2023-02-01T01:21:33;1.45;;;0.65;;
63050;SDS011;49136;47.416;19.402;2023-02-01T01:24:04;1.70;;;1.02;;
63050;SDS011;49136;47.416;19.402;2023-02-01T01:26:30;3.67;;;1.38;;
63050;SDS011;49136;47.416;19.402;2023-02-01T01:28:56;4.38;;;0.75;;
63050;SDS011;49136;47.416;19.402;2023-02-01T01:31:23;1.50;;;0.88;;
63050;SDS011;49136;47.416;19.402;2023-02-01T01:36:28;2.42;;;1.30;;
63050;SDS011;49136;47.416;19.402;2023-02-01T01:38:54;1.20;;;0.77;;
63050;SDS011;49136;47.416;19.402;2023-02-01T01:41:21;1.55;;;0.73;;
63050;SDS011;49136;47.416;19.402;2023-02-01T01:44:04;1.52;;;1.13;;
63050;SDS011;49136;47.416;19.402;2023-02-01T01:46:32;2.15;;;0.90;;
63050;SDS011;49136;47.416;19.402;2023-02-01T01:51:54;1.38;;;0.60;;
63050;SDS011;49136;47.416;19.402;2023-02-01T01:57:21;1.83;;;1.05;;
63050;SDS011;49136;47.416;19.402;2023-02-01T01:59:57;1.88;;;1.13;;
63050;SDS011;49136;47.416;19.402;2023-02-01T02:02:29;2.92;;;0.88;;
63050;SDS011;49136;47.416;19.402;2023-02-01T02:04:55;0.88;;;0.70;;
63050;SDS011;49136;47.416;19.402;2023-02-01T02:07:28;1.40;;;1.02;;
63050;SDS011;49136;47.416;19.402;2023-02-01T02:09:58;1.83;;;1.27;;
63050;SDS011;49136;47.416;19.402;2023-02-01T02:12:25;1.98;;;0.60;;
63050;SDS011;49136;47.416;19.402;2023-02-01T02:14:57;4.03;;;1.98;;
63050;SDS011;49136;47.416;19.402;2023-02-01T02:22:42;1.65;;;1.15;;
63050;SDS011;49136;47.416;19.402;2023-02-01T02:31:46;2.08;;;0.77;;
63050;SDS011;49136;47.416;19.402;2023-02-01T02:40:47;1.92;;;1.10;;
63050;SDS011;49136;47.416;19.402;2023-02-01T02:49:11;2.55;;;1.15;;
63050;SDS011;49136;47.416;19.402;2023-02-01T02:51:49;3.92;;;1.27;;
63050;SDS011;49136;47.416;19.402;2023-02-01T02:54:41;2.55;;;0.93;;
63050;SDS011;49136;47.416;19.402;2023-02-01T03:00:35;1.38;;;0.93;;
63050;SDS011;49136;47.416;19.402;2023-02-01T03:03:20;1.00;;;0.70;;
63050;SDS011;49136;47.416;19.402;2023-02-01T03:09:00;1.33;;;0.93;;
63050;SDS011;49136;47.416;19.402;2023-02-01T03:11:29;1.60;;;1.02;;
63050;SDS011;49136;47.416;19.402;2023-02-01T03:14:16;2.05;;;1.17;;
63050;SDS011;49136;47.416;19.402;2023-02-01T03:16:52;1.35;;;1.08;;
63050;SDS011;49136;47.416;19.402;2023-02-01T03:19:45;1.83;;;0.95;;
63050;SDS011;49136;47.416;19.402;2023-02-01T03:22:17;3.90;;;1.23;;
63050;SDS011;49136;47.416;19.402;2023-02-01T03:24:49;17.92;;;1.67;;
63050;SDS011;49136;47.416;19.402;2023-02-01T03:27:20;2.45;;;1.35;;
63050;SDS011;49136;47.416;19.402;2023-02-01T03:29:59;3.55;;;1.00;;
63050;SDS011;49136;47.416;19.402;2023-02-01T03:38:23;2.28;;;1.60;;
63050;SDS011;49136;47.416;19.402;2023-02-01T03:41:41;3.88;;;1.55;;
63050;SDS011;49136;47.416;19.402;2023-02-01T03:52:09;3.15;;;2.05;;
63050;SDS011;49136;47.416;19.402;2023-02-01T03:54:38;3.80;;;1.23;;
63050;SDS011;49136;47.416;19.402;2023-02-01T03:57:05;3.75;;;1.48;;
63050;SDS011;49136;47.416;19.402;2023-02-01T03:59:38;1.33;;;0.98;;
63050;SDS011;49136;47.416;19.402;2023-02-01T04:02:08;2.05;;;0.88;;
63050;SDS011;49136;47.416;19.402;2023-02-01T04:04:33;1.63;;;1.17;;
63050;SDS011;49136;47.416;19.402;2023-02-01T04:06:59;1.73;;;0.93;;
63050;SDS011;49136;47.416;19.402;2023-02-01T04:09:24;7.05;;;0.98;;
63050;SDS011;49136;47.416;19.402;2023-02-01T04:14:43;6.20;;;1.27;;
63050;SDS011;49136;47.416;19.402;2023-02-01T04:17:08;2.58;;;1.23;;
63050;SDS011;49136;47.416;19.402;2023-02-01T04:19:33;1.80;;;1.15;;
63050;SDS011;49136;47.416;19.402;2023-02-01T04:22:00;2.85;;;0.90;;
63050;SDS011;49136;47.416;19.402;2023-02-01T04:24:25;3.38;;;1.73;;
63050;SDS011;49136;47.416;19.402;2023-02-01T04:26:51;2.03;;;1.55;;
63050;SDS011;49136;47.416;19.402;2023-02-01T04:29:16;1.85;;;0.95;;
63050;SDS011;49136;47.416;19.402;2023-02-01T04:31:46;2.58;;;1.88;;
63050;SDS011;49136;47.416;19.402;2023-02-01T04:34:12;1.35;;;0.93;;
63050;SDS011;49136;47.416;19.402;2023-02-01T04:36:37;1.25;;;0.98;;
63050;SDS011;49136;47.416;19.402;2023-02-01T04:39:03;2.88;;;1.60;;
63050;SDS011;49136;47.416;19.402;2023-02-01T04:41:39;5.55;;;2.50;;
63050;SDS011;49136;47.416;19.402;2023-02-01T04:44:05;2.08;;;0.77;;
63050;SDS011;49136;47.416;19.402;2023-02-01T04:46:30;2.53;;;0.95;;
63050;SDS011;49136;47.416;19.402;2023-02-01T04:48:56;2.42;;;1.95;;
63050;SDS011;49136;47.416;19.402;2023-02-01T04:51:21;5.28;;;1.10;;
63050;SDS011;49136;47.416;19.402;2023-02-01T04:54:00;3.20;;;1.50;;
63050;SDS011;49136;47.416;19.402;2023-02-01T04:56:26;2.30;;;1.40;;
63050;SDS011;49136;47.416;19.402;2023-02-01T04:58:51;3.50;;;1.02;;
63050;SDS011;49136;47.416;19.402;2023-02-01T05:01:17;0.77;;;0.77;;
63050;SDS011;49136;47.416;19.402;2023-02-01T05:03:45;1.50;;;1.33;;
63050;SDS011;49136;47.416;19.402;2023-02-01T05:06:11;3.05;;;1.25;;
63050;SDS011;49136;47.416;19.402;2023-02-01T05:08:36;0.80;;;0.80;;
63050;SDS011;49136;47.416;19.402;2023-02-01T05:11:02;3.45;;;1.13;;
63050;SDS011;49136;47.416;19.402;2023-02-01T05:13:33;2.45;;;1.42;;
63050;SDS011;49136;47.416;19.402;2023-02-01T05:16:14;2.55;;;0.98;;
63050;SDS011;49136;47.416;19.402;2023-02-01T05:18:40;2.63;;;1.27;;
63050;SDS011;49136;47.416;19.402;2023-02-01T05:21:07;2.85;;;1.40;;
63050;SDS011;49136;47.416;19.402;2023-02-01T05:23:33;0.85;;;0.60;;
63050;SDS011;49136;47.416;19.402;2023-02-01T05:26:18;1.90;;;1.17;;
63050;SDS011;49136;47.416;19.402;2023-02-01T05:28:43;2.17;;;1.58;;
63050;SDS011;49136;47.416;19.402;2023-02-01T05:31:09;2.10;;;1.10;;
63050;SDS011;49136;47.416;19.402;2023-02-01T05:33:36;3.42;;;2.78;;
63050;SDS011;49136;47.416;19.402;2023-02-01T05:36:02;1.70;;;1.17;;
63050;SDS011;49136;47.416;19.402;2023-02-01T05:38:28;1.05;;;0.88;;
63050;SDS011;49136;47.416;19.402;2023-02-01T05:40:54;1.85;;;1.00;;
63050;SDS011;49136;47.416;19.402;2023-02-01T05:43:24;1.08;;;0.98;;
63050;SDS011;49136;47.416;19.402;2023-02-01T05:45:54;2.20;;;0.77;;
63050;SDS011;49136;47.416;19.402;2023-02-01T05:48:19;2.45;;;1.65;;
63050;SDS011;49136;47.416;19.402;2023-02-01T05:50:45;2.53;;;1.83;;
63050;SDS011;49136;47.416;19.402;2023-02-01T05:56:33;2.07;;;1.03;;
63050;SDS011;49136;47.416;19.402;2023-02-01T05:58:58;1.05;;;0.98;;
63050;SDS011;49136;47.416;19.402;2023-02-01T06:01:39;1.85;;;0.85;;
63050;SDS011;49136;47.416;19.402;2023-02-01T06:04:05;1.20;;;1.07;;
63050;SDS011;49136;47.416;19.402;2023-02-01T06:06:31;1.90;;;1.42;;
63050;SDS011;49136;47.416;19.402;2023-02-01T06:08:56;1.88;;;1.67;;
63050;SDS011;49136;47.416;19.402;2023-02-01T06:11:22;4.40;;;1.67;;
63050;SDS011;49136;47.416;19.402;2023-02-01T06:13:50;4.55;;;1.65;;
63050;SDS011;49136;47.416;19.402;2023-02-01T06:16:16;1.58;;;1.25;;
63050;SDS011;49136;47.416;19.402;2023-02-01T06:18:41;1.63;;;1.38;;
63050;SDS011;49136;47.416;19.402;2023-02-01T06:21:21;3.65;;;1.00;;
63050;SDS011;49136;47.416;19.402;2023-02-01T06:23:50;2.55;;;1.33;;
63050;SDS011;49136;47.416;19.402;2023-02-01T06:26:16;3.33;;;2.10;;
63050;SDS011;49136;47.416;19.402;2023-02-01T06:28:43;3.13;;;1.23;;
63050;SDS011;49136;47.416;19.402;2023-02-01T06:31:10;1.80;;;0.90;;
63050;SDS011;49136;47.416;19.402;2023-02-01T06:33:38;3.88;;;1.58;;
63050;SDS011;49136;47.416;19.402;2023-02-01T06:36:05;2.90;;;1.92;;
63050;SDS011;49136;47.416;19.402;2023-02-01T06:38:32;2.25;;;1.33;;
63050;SDS011;49136;47.416;19.402;2023-02-01T06:41:01;1.25;;;1.13;;
63050;SDS011;49136;47.416;19.402;2023-02-01T06:46:18;3.30;;;1.85;;
63050;SDS011;49136;47.416;19.402;2023-02-01T06:48:43;1.45;;;0.88;;
63050;SDS011;49136;47.416;19.402;2023-02-01T06:54:09;1.77;;;1.35;;
63050;SDS011;49136;47.416;19.402;2023-02-01T06:56:34;11.93;;;1.10;;
63050;SDS011;49136;47.416;19.402;2023-02-01T06:59:03;2.25;;;1.33;;
63050;SDS011;49136;47.416;19.402;2023-02-01T07:01:29;2.28;;;1.27;;
63050;SDS011;49136;47.416;19.402;2023-02-01T07:03:55;3.22;;;1.65;;
63050;SDS011;49136;47.416;19.402;2023-02-01T07:06:21;5.22;;;1.77;;
63050;SDS011;49136;47.416;19.402;2023-02-01T07:08:46;2.28;;;1.42;;
63050;SDS011;49136;47.416;19.402;2023-02-01T07:11:12;2.28;;;1.30;;
63050;SDS011;49136;47.416;19.402;2023-02-01T07:16:23;7.30;;;2.55;;
63050;SDS011;49136;47.416;19.402;2023-02-01T07:18:50;4.18;;;2.05;;
63050;SDS011;49136;47.416;19.402;2023-02-01T07:21:16;2.78;;;1.73;;
63050;SDS011;49136;47.416;19.402;2023-02-01T07:26:39;1.80;;;1.27;;
63050;SDS011;49136;47.416;19.402;2023-02-01T07:29:05;4.68;;;1.75;;
63050;SDS011;49136;47.416;19.402;2023-02-01T07:31:30;2.22;;;1.75;;
63050;SDS011;49136;47.416;19.402;2023-02-01T07:34:00;1.15;;;0.75;;
63050;SDS011;49136;47.416;19.402;2023-02-01T07:36:27;2.88;;;1.30;;
63050;SDS011;49136;47.416;19.402;2023-02-01T07:38:53;1.42;;;1.13;;
63050;SDS011;49136;47.416;19.402;2023-02-01T07:41:18;4.00;;;1.35;;
63050;SDS011;49136;47.416;19.402;2023-02-01T07:46:37;2.08;;;1.38;;
63050;SDS011;49136;47.416;19.402;2023-02-01T07:49:04;10.02;;;2.97;;
63050;SDS011;49136;47.416;19.402;2023-02-01T07:51:30;6.00;;;1.73;;
63050;SDS011;49136;47.416;19.402;2023-02-01T07:53:58;1.50;;;1.13;;
63050;SDS011;49136;47.416;19.402;2023-02-01T07:56:24;5.70;;;2.85;;
63050;SDS011;49136;47.416;19.402;2023-02-01T07:58:50;5.95;;;2.03;;
63050;SDS011;49136;47.416;19.402;2023-02-01T08:01:18;2.58;;;1.75;;
63050;SDS011;49136;47.416;19.402;2023-02-01T08:03:50;9.40;;;2.90;;
63050;SDS011;49136;47.416;19.402;2023-02-01T08:06:18;9.20;;;1.95;;
63050;SDS011;49136;47.416;19.402;2023-02-01T08:08:44;2.92;;;1.95;;
63050;SDS011;49136;47.416;19.402;2023-02-01T08:11:12;2.97;;;1.55;;
63050;SDS011;49136;47.416;19.402;2023-02-01T08:16:11;2.38;;;1.80;;
63050;SDS011;49136;47.416;19.402;2023-02-01T08:18:37;5.70;;;2.75;;
63050;SDS011;49136;47.416;19.402;2023-02-01T08:21:08;7.63;;;1.38;;
63050;SDS011;49136;47.416;19.402;2023-02-01T08:26:22;4.13;;;1.88;;
63050;SDS011;49136;47.416;19.402;2023-02-01T08:28:54;7.20;;;3.17;;
63050;SDS011;49136;47.416;19.402;2023-02-01T08:31:22;6.93;;;2.67;;
63050;SDS011;49136;47.416;19.402;2023-02-01T08:33:54;7.03;;;1.83;;
63050;SDS011;49136;47.416;19.402;2023-02-01T08:36:22;1.40;;;1.10;;
63050;SDS011;49136;47.416;19.402;2023-02-01T08:38:49;2.95;;;1.83;;
63050;SDS011;49136;47.416;19.402;2023-02-01T08:41:16;4.80;;;2.45;;
63050;SDS011;49136;47.416;19.402;2023-02-01T08:43:51;5.93;;;2.70;;
63050;SDS011;49136;47.416;19.402;2023-02-01T08:46:19;5.57;;;2.53;;
63050;SDS011;49136;47.416;19.402;2023-02-01T08:48:45;5.18;;;2.42;;
63050;SDS011;49136;47.416;19.402;2023-02-01T08:51:13;1.50;;;1.23;;
63050;SDS011;49136;47.416;19.402;2023-02-01T08:56:26;8.70;;;2.00;;
63050;SDS011;49136;47.416;19.402;2023-02-01T08:58:51;2.95;;;1.60;;
63050;SDS011;49136;47.416;19.402;2023-02-01T09:01:17;2.40;;;1.70;;
63050;SDS011;49136;47.416;19.402;2023-02-01T09:03:45;5.50;;;2.67;;
63050;SDS011;49136;47.416;19.402;2023-02-01T09:08:55;5.55;;;1.63;;
63050;SDS011;49136;47.416;19.402;2023-02-01T09:11:21;4.88;;;1.92;;
63050;SDS011;49136;47.416;19.402;2023-02-01T09:16:34;4.72;;;2.15;;
63050;SDS011;49136;47.416;19.402;2023-02-01T09:18:59;3.25;;;2.08;;
63050;SDS011;49136;47.416;19.402;2023-02-01T09:21:24;3.00;;;1.73;;
63050;SDS011;49136;47.416;19.402;2023-02-01T09:23:54;3.88;;;1.80;;
63050;SDS011;49136;47.416;19.402;2023-02-01T09:26:20;9.55;;;3.00;;
63050;SDS011;49136;47.416;19.402;2023-02-01T09:28:45;4.55;;;2.25;;
63050;SDS011;49136;47.416;19.402;2023-02-01T09:31:12;3.30;;;1.75;;
63050;SDS011;49136;47.416;19.402;2023-02-01T09:33:38;4.90;;;2.08;;
63050;SDS011;49136;47.416;19.402;2023-02-01T09:36:06;2.38;;;1.75;;
63050;SDS011;49136;47.416;19.402;2023-02-01T09:38:31;6.78;;;2.80;;
63050;SDS011;49136;47.416;19.402;2023-02-01T09:40:57;13.48;;;4.80;;
63050;SDS011;49136;47.416;19.402;2023-02-01T09:49:20;3.97;;;2.00;;
63050;SDS011;49136;47.416;19.402;2023-02-01T09:51:51;1.40;;;1.10;;
63050;SDS011;49136;47.416;19.402;2023-02-01T09:57:16;5.00;;;3.05;;
63050;SDS011;49136;47.416;19.402;2023-02-01T09:59:49;4.00;;;2.17;;
63050;SDS011;49136;47.416;19.402;2023-02-01T10:02:21;4.03;;;1.70;;
63050;SDS011;49136;47.416;19.402;2023-02-01T10:08:33;1.75;;;1.10;;
63050;SDS011;49136;47.416;19.402;2023-02-01T10:10:49;2.85;;;1.20;;
63050;SDS011;49136;47.416;19.402;2023-02-01T10:16:40;8.63;;;1.52;;
63050;SDS011;49136;47.416;19.402;2023-02-01T10:27:27;2.75;;;1.92;;
63050;SDS011;49136;47.416;19.402;2023-02-01T10:29:59;6.50;;;2.03;;
63050;SDS011;49136;47.416;19.402;2023-02-01T10:32:34;8.10;;;2.55;;
63050;SDS011;49136;47.416;19.402;2023-02-01T10:35:17;5.53;;;2.55;;
63050;SDS011;49136;47.416;19.402;2023-02-01T10:37:48;3.85;;;1.92;;
63050;SDS011;49136;47.416;19.402;2023-02-01T10:40:22;5.30;;;2.47;;
63050;SDS011;49136;47.416;19.402;2023-02-01T10:42:50;5.65;;;2.20;;
63050;SDS011;49136;47.416;19.402;2023-02-01T10:45:27;4.03;;;1.35;;
63050;SDS011;49136;47.416;19.402;2023-02-01T10:47:55;3.28;;;1.63;;
63050;SDS011;49136;47.416;19.402;2023-02-01T10:50:33;1.42;;;1.13;;
63050;SDS011;49136;47.416;19.402;2023-02-01T10:55:52;4.65;;;1.90;;
63050;SDS011;49136;47.416;19.402;2023-02-01T10:58:19;1.33;;;1.23;;
63050;SDS011;49136;47.416;19.402;2023-02-01T11:00:57;2.20;;;1.45;;
63050;SDS011;49136;47.416;19.402;2023-02-01T11:03:30;1.92;;;1.33;;
63050;SDS011;49136;47.416;19.402;2023-02-01T11:06:40;8.37;;;2.40;;
63050;SDS011;49136;47.416;19.402;2023-02-01T11:11:33;4.90;;;1.45;;
63050;SDS011;49136;47.416;19.402;2023-02-01T11:22:59;3.20;;;1.42;;
63050;SDS011;49136;47.416;19.402;2023-02-01T11:28:38;2.50;;;1.65;;
63050;SDS011;49136;47.416;19.402;2023-02-01T11:31:07;1.77;;;1.35;;
63050;SDS011;49136;47.416;19.402;2023-02-01T11:33:36;6.57;;;1.85;;
63050;SDS011;49136;47.416;19.402;2023-02-01T11:36:18;4.65;;;2.20;;
63050;SDS011;49136;47.416;19.402;2023-02-01T11:38:52;5.22;;;2.53;;
63050;SDS011;49136;47.416;19.402;2023-02-01T11:41:42;12.15;;;2.83;;
63050;SDS011;49136;47.416;19.402;2023-02-01T11:44:22;7.65;;;2.97;;
63050;SDS011;49136;47.416;19.402;2023-02-01T11:46:55;5.65;;;2.40;;
63050;SDS011;49136;47.416;19.402;2023-02-01T11:49:24;5.22;;;2.88;;
63050;SDS011;49136;47.416;19.402;2023-02-01T11:58:05;2.35;;;1.77;;
63050;SDS011;49136;47.416;19.402;2023-02-01T12:03:36;2.92;;;1.90;;
63050;SDS011;49136;47.416;19.402;2023-02-01T12:06:32;3.55;;;2.08;;
63050;SDS011;49136;47.416;19.402;2023-02-01T12:09:17;3.75;;;2.00;;
63050;SDS011;49136;47.416;19.402;2023-02-01T12:29:59;4.35;;;1.52;;
63050;SDS011;49136;47.416;19.402;2023-02-01T12:32:54;4.20;;;2.08;;
63050;SDS011;49136;47.416;19.402;2023-02-01T12:35:44;3.30;;;2.13;;
63050;SDS011;49136;47.416;19.402;2023-02-01T12:43:52;2.03;;;0.98;;
63050;SDS011;49136;47.416;19.402;2023-02-01T12:49:38;6.45;;;2.30;;
63050;SDS011;49136;47.416;19.402;2023-02-01T12:52:46;3.80;;;1.40;;
63050;SDS011;49136;47.416;19.402;2023-02-01T12:55:39;7.07;;;3.53;;
63050;SDS011;49136;47.416;19.402;2023-02-01T12:58:15;2.75;;;1.48;;
63050;SDS011;49136;47.416;19.402;2023-02-01T13:00:46;4.60;;;2.08;;
63050;SDS011;49136;47.416;19.402;2023-02-01T13:11:53;4.13;;;1.63;;
63050;SDS011;49136;47.416;19.402;2023-02-01T13:14:43;1.92;;;1.60;;
63050;SDS011;49136;47.416;19.402;2023-02-01T13:20:06;1.70;;;1.25;;
63050;SDS011;49136;47.416;19.402;2023-02-01T13:23:11;2.17;;;1.38;;
63050;SDS011;49136;47.416;19.402;2023-02-01T13:25:50;1.23;;;1.13;;
63050;SDS011;49136;47.416;19.402;2023-02-01T13:28:32;4.30;;;2.10;;
63050;SDS011;49136;47.416;19.402;2023-02-01T13:40:09;2.80;;;1.58;;
63050;SDS011;49136;47.416;19.402;2023-02-01T13:46:07;3.90;;;1.70;;
63050;SDS011;49136;47.416;19.402;2023-02-01T13:49:01;3.00;;;2.45;;
63050;SDS011;49136;47.416;19.402;2023-02-01T13:51:49;7.20;;;3.05;;
63050;SDS011;49136;47.416;19.402;2023-02-01T13:57:05;7.80;;;2.35;;
63050;SDS011;49136;47.416;19.402;2023-02-01T14:16:29;3.15;;;1.83;;
63050;SDS011;49136;47.416;19.402;2023-02-01T14:18:58;3.78;;;1.83;;
63050;SDS011;49136;47.416;19.402;2023-02-01T14:21:26;2.97;;;1.70;;
63050;SDS011;49136;47.416;19.402;2023-02-01T14:26:46;2.65;;;1.83;;
63050;SDS011;49136;47.416;19.402;2023-02-01T14:34:56;5.22;;;2.85;;
63050;SDS011;49136;47.416;19.402;2023-02-01T14:37:29;2.55;;;1.70;;
63050;SDS011;49136;47.416;19.402;2023-02-01T14:42:48;19.05;;;5.78;;
63050;SDS011;49136;47.416;19.402;2023-02-01T14:58:06;31.55;;;7.13;;
63050;SDS011;49136;47.416;19.402;2023-02-01T15:03:58;12.60;;;5.43;;
63050;SDS011;49136;47.416;19.402;2023-02-01T15:12:24;5.05;;;1.88;;
63050;SDS011;49136;47.416;19.402;2023-02-01T15:17:49;6.82;;;3.03;;
63050;SDS011;49136;47.416;19.402;2023-02-01T15:23:23;9.25;;;4.75;;
63050;SDS011;49136;47.416;19.402;2023-02-01T15:25:49;10.10;;;6.53;;
63050;SDS011;49136;47.416;19.402;2023-02-01T15:28:15;13.40;;;5.03;;
63050;SDS011;49136;47.416;19.402;2023-02-01T15:33:40;7.75;;;1.85;;
63050;SDS011;49136;47.416;19.402;2023-02-01T15:36:21;8.02;;;3.20;;
63050;SDS011;49136;47.416;19.402;2023-02-01T15:39:11;6.10;;;2.75;;
63050;SDS011;49136;47.416;19.402;2023-02-01T15:42:31;3.90;;;2.53;;
63050;SDS011;49136;47.416;19.402;2023-02-01T15:44:51;10.43;;;3.17;;
63050;SDS011;49136;47.416;19.402;2023-02-01T15:47:27;12.35;;;4.88;;
63050;SDS011;49136;47.416;19.402;2023-02-01T15:49:58;11.00;;;4.10;;
63050;SDS011;49136;47.416;19.402;2023-02-01T15:52:39;8.40;;;3.38;;
63050;SDS011;49136;47.416;19.402;2023-02-01T15:57:59;22.48;;;8.10;;
63050;SDS011;49136;47.416;19.402;2023-02-01T16:00:25;15.68;;;4.82;;
63050;SDS011;49136;47.416;19.402;2023-02-01T16:03:20;33.17;;;6.35;;
63050;SDS011;49136;47.416;19.402;2023-02-01T16:05:53;17.95;;;4.05;;
63050;SDS011;49136;47.416;19.402;2023-02-01T16:08:24;9.65;;;3.60;;
63050;SDS011;49136;47.416;19.402;2023-02-01T16:13:47;3.70;;;2.17;;
63050;SDS011;49136;47.416;19.402;2023-02-01T16:16:12;3.85;;;2.10;;
63050;SDS011;49136;47.416;19.402;2023-02-01T16:18:39;3.33;;;1.80;;
63050;SDS011;49136;47.416;19.402;2023-02-01T16:21:05;8.70;;;2.47;;
63050;SDS011;49136;47.416;19.402;2023-02-01T16:23:39;1.52;;;1.42;;
63050;SDS011;49136;47.416;19.402;2023-02-01T16:28:31;0.82;;;0.82;;
63050;SDS011;49136;47.416;19.402;2023-02-01T16:31:17;0.80;;;0.80;;
63050;SDS011;49136;47.416;19.402;2023-02-01T16:33:53;1.00;;;0.93;;
63050;SDS011;49136;47.416;19.402;2023-02-01T16:36:19;2.67;;;1.10;;
63050;SDS011;49136;47.416;19.402;2023-02-01T16:38:45;2.30;;;1.25;;
63050;SDS011;49136;47.416;19.402;2023-02-01T16:41:16;1.08;;;0.85;;
63050;SDS011;49136;47.416;19.402;2023-02-01T16:43:43;1.55;;;1.45;;
63050;SDS011;49136;47.416;19.402;2023-02-01T16:46:16;2.05;;;0.90;;
63050;SDS011;49136;47.416;19.402;2023-02-01T16:48:46;0.73;;;0.73;;
63050;SDS011;49136;47.416;19.402;2023-02-01T16:51:33;0.80;;;0.80;;
63050;SDS011;49136;47.416;19.402;2023-02-01T16:54:07;1.77;;;1.15;;
63050;SDS011;49136;47.416;19.402;2023-02-01T16:56:33;2.55;;;1.55;;
63050;SDS011;49136;47.416;19.402;2023-02-01T16:59:00;1.98;;;1.02;;
63050;SDS011;49136;47.416;19.402;2023-02-01T17:01:26;0.70;;;0.68;;
63050;SDS011;49136;47.416;19.402;2023-02-01T17:03:53;1.30;;;1.00;;
63050;SDS011;49136;47.416;19.402;2023-02-01T17:06:21;1.60;;;1.17;;
63050;SDS011;49136;47.416;19.402;2023-02-01T17:08:52;7.63;;;2.30;;
63050;SDS011;49136;47.416;19.402;2023-02-01T17:11:20;3.90;;;1.05;;
63050;SDS011;49136;47.416;19.402;2023-02-01T17:13:45;0.70;;;0.45;;
63050;SDS011;49136;47.416;19.402;2023-02-01T17:18:51;1.63;;;1.45;;
63050;SDS011;49136;47.416;19.402;2023-02-01T17:21:23;7.85;;;3.13;;
63050;SDS011;49136;47.416;19.402;2023-02-01T17:23:51;4.10;;;1.67;;
63050;SDS011;49136;47.416;19.402;2023-02-01T17:26:18;5.15;;;1.65;;
63050;SDS011;49136;47.416;19.402;2023-02-01T17:31:41;8.57;;;1.98;;
63050;SDS011;49136;47.416;19.402;2023-02-01T17:34:10;7.22;;;2.00;;
63050;SDS011;49136;47.416;19.402;2023-02-01T17:36:55;6.65;;;2.58;;
63050;SDS011;49136;47.416;19.402;2023-02-01T17:39:21;8.35;;;2.08;;
63050;SDS011;49136;47.416;19.402;2023-02-01T17:42:08;5.15;;;2.72;;
63050;SDS011;49136;47.416;19.402;2023-02-01T17:44:36;8.23;;;3.83;;
63050;SDS011;49136;47.416;19.402;2023-02-01T17:47:02;15.43;;;5.93;;
63050;SDS011;49136;47.416;19.402;2023-02-01T17:49:30;9.40;;;4.80;;
63050;SDS011;49136;47.416;19.402;2023-02-01T17:51:58;13.15;;;5.63;;
63050;SDS011;49136;47.416;19.402;2023-02-01T17:54:24;22.17;;;7.43;;
63050;SDS011;49136;47.416;19.402;2023-02-01T17:56:50;21.05;;;10.88;;
63050;SDS011;49136;47.416;19.402;2023-02-01T17:59:17;24.00;;;10.32;;
63050;SDS011;49136;47.416;19.402;2023-02-01T18:01:43;18.92;;;7.50;;
63050;SDS011;49136;47.416;19.402;2023-02-01T18:04:12;19.58;;;7.88;;
63050;SDS011;49136;47.416;19.402;2023-02-01T18:06:45;20.00;;;8.38;;
63050;SDS011;49136;47.416;19.402;2023-02-01T18:09:11;17.38;;;6.90;;
63050;SDS011;49136;47.416;19.402;2023-02-01T18:11:37;12.93;;;5.18;;
63050;SDS011;49136;47.416;19.402;2023-02-01T18:14:05;14.65;;;5.65;;
63050;SDS011;49136;47.416;19.402;2023-02-01T18:16:31;10.63;;;4.65;;
63050;SDS011;49136;47.416;19.402;2023-02-01T18:19:00;14.95;;;5.70;;
63050;SDS011;49136;47.416;19.402;2023-02-01T18:21:42;13.43;;;5.82;;
63050;SDS011;49136;47.416;19.402;2023-02-01T18:24:11;18.98;;;4.85;;
63050;SDS011;49136;47.416;19.402;2023-02-01T18:26:52;7.82;;;3.33;;
63050;SDS011;49136;47.416;19.402;2023-02-01T18:29:23;7.63;;;3.47;;
63050;SDS011;49136;47.416;19.402;2023-02-01T18:31:51;5.72;;;2.92;;
63050;SDS011;49136;47.416;19.402;2023-02-01T18:34:17;4.82;;;2.17;;
63050;SDS011;49136;47.416;19.402;2023-02-01T18:36:52;4.82;;;1.85;;
63050;SDS011;49136;47.416;19.402;2023-02-01T18:39:18;2.67;;;2.45;;
63050;SDS011;49136;47.416;19.402;2023-02-01T18:41:45;6.97;;;2.67;;
63050;SDS011;49136;47.416;19.402;2023-02-01T18:44:12;4.65;;;1.77;;
63050;SDS011;49136;47.416;19.402;2023-02-01T18:46:39;2.35;;;2.15;;
63050;SDS011;49136;47.416;19.402;2023-02-01T18:49:05;6.03;;;2.85;;
63050;SDS011;49136;47.416;19.402;2023-02-01T18:51:32;4.60;;;2.35;;
63050;SDS011;49136;47.416;19.402;2023-02-01T18:54:00;1.65;;;1.40;;
63050;SDS011;49136;47.416;19.402;2023-02-01T18:56:27;3.85;;;1.70;;
63050;SDS011;49136;47.416;19.402;2023-02-01T18:59:03;2.28;;;1.08;;
63050;SDS011;49136;47.416;19.402;2023-02-01T19:01:29;10.23;;;2.40;;
63050;SDS011;49136;47.416;19.402;2023-02-01T19:03:55;2.38;;;0.85;;
63050;SDS011;49136;47.416;19.402;2023-02-01T19:06:21;1.83;;;1.50;;
63050;SDS011;49136;47.416;19.402;2023-02-01T19:08:47;7.07;;;1.27;;
63050;SDS011;49136;47.416;19.402;2023-02-01T19:11:15;4.78;;;2.55;;
63050;SDS011;49136;47.416;19.402;2023-02-01T19:13:41;10.52;;;3.85;;
63050;SDS011;49136;47.416;19.402;2023-02-01T19:16:08;8.73;;;3.00;;
63050;SDS011;49136;47.416;19.402;2023-02-01T19:18:41;2.80;;;1.48;;
63050;SDS011;49136;47.416;19.402;2023-02-01T19:21:08;8.68;;;3.10;;
63050;SDS011;49136;47.416;19.402;2023-02-01T19:23:38;9.32;;;2.33;;
63050;SDS011;49136;47.416;19.402;2023-02-01T19:26:09;6.00;;;1.58;;
63050;SDS011;49136;47.416;19.402;2023-02-01T19:28:38;14.60;;;3.67;;
63050;SDS011;49136;47.416;19.402;2023-02-01T19:31:05;3.42;;;1.90;;